Time;durP1;ratioP1;P1;durP2;ratioP2;P2;SDS_P1;SDS_P2;PMS_P1;PMS_P2;Temp;Humidity;BMP_temperature;BMP_pressure;BME280_temperature;BME280_humidity;BME280_pressure;Samples;Min_cycle;Max_cycle;Signal;HPM_P1;HPM_P2
2022/09/13 00:00:48;;;;;;;8.93;4.90;;;;;;;16.81;100.00;101102.84;5093754;28;20024;-81
2022/09/13 00:03:14;;;;;;;9.07;5.07;;;;;;;16.80;100.00;101112.78;5094541;28;20032;-82
2022/09/13 00:05:39;;;;;;;9.82;5.30;;;;;;;16.81;100.00;101117.16;5075574;28;20134;-81
2022/09/13 00:08:06;;;;;;;12.93;5.22;;;;;;;16.84;100.00;101114.13;5093366;28;20464;-82
2022/09/13 00:10:33;;;;;;;9.95;5.88;;;;;;;16.84;100.00;101116.81;5075363;28;20511;-82
2022/09/13 00:12:59;;;;;;;7.05;5.57;;;;;;;16.84;100.00;101116.81;5075407;28;20035;-82
2022/09/13 00:15:24;;;;;;;9.13;5.90;;;;;;;16.85;100.00;101109.56;5093113;28;20119;-80
2022/09/13 00:17:50;;;;;;;7.07;5.90;;;;;;;16.86;100.00;101113.94;5093530;28;20115;-80
2022/09/13 00:20:15;;;;;;;8.30;5.90;;;;;;;16.85;100.00;101112.25;5075794;28;20040;-79
2022/09/13 00:22:41;;;;;;;11.75;5.65;;;;;;;16.84;100.00;101111.44;5093439;28;20044;-80
2022/09/13 00:25:07;;;;;;;7.20;5.97;;;;;;;16.84;100.00;101102.50;5093353;28;20040;-80
2022/09/13 00:27:34;;;;;;;7.53;6.30;;;;;;;16.84;100.00;101105.19;5093338;28;20418;-82
2022/09/13 00:29:59;;;;;;;8.23;5.68;;;;;;;16.85;100.00;101102.34;5093052;28;20082;-80
2022/09/13 00:32:25;;;;;;;8.40;6.22;;;;;;;16.84;100.00;101119.50;5093136;28;20519;-84
2022/09/13 00:34:51;;;;;;;9.90;6.40;;;;;;;16.84;100.00;101116.81;5093768;28;20040;-82
2022/09/13 00:37:16;;;;;;;8.10;5.85;;;;;;;16.82;100.00;101102.69;5093270;28;20562;-80
2022/09/13 00:39:42;;;;;;;11.77;6.30;;;;;;;16.83;100.00;101106.22;5074783;28;20044;-79
2022/09/13 00:42:13;;;;;;;7.90;6.40;;;;;;;16.81;100.00;101111.78;5092896;28;20454;-82
2022/09/13 00:45:01;;;;;;;8.55;5.82;;;;;;;16.82;100.00;101104.53;5074772;28;20078;-82
2022/09/13 00:47:40;;;;;;;11.25;6.55;;;;;;;16.81;100.00;101117.16;5077080;28;20455;-83
2022/09/13 00:50:22;;;;;;;12.35;6.13;;;;;;;16.79;100.00;101115.63;5077228;28;20380;-82
2022/09/13 00:53:01;;;;;;;13.10;6.28;;;;;;;16.74;100.00;101111.63;5077058;28;20031;-82
2022/09/13 00:55:32;;;;;;;11.18;6.50;;;;;;;16.72;100.00;101112.81;5077188;28;20047;-87
2022/09/13 00:58:03;;;;;;;10.13;6.07;;;;;;;16.69;100.00;101114.00;5077053;28;20097;-82
2022/09/13 01:00:29;;;;;;;;;;;;;;;16.69;100.00;101110.44;5077681;28;20024;-82
2022/09/13 01:03:00;;;;;;;12.65;6.40;;;;;;;16.68;100.00;101104.25;5076312;28;19916;-81
2022/09/13 01:05:31;;;;;;;10.32;6.47;;;;;;;16.67;100.00;101097.19;5077589;28;20063;-80
2022/09/13 01:07:58;;;;;;;8.02;5.95;;;;;;;16.66;100.00;101102.75;5077162;28;20033;-80
2022/09/13 01:10:25;;;;;;;8.02;6.20;;;;;;;16.67;100.00;101105.25;5076103;28;20033;-80
2022/09/13 01:13:13;;;;;;;7.85;5.80;;;;;;;16.65;100.00;101103.78;5076574;28;20077;-82
2022/09/13 01:15:40;;;;;;;8.70;6.07;;;;;;;16.65;100.00;101101.09;5077206;28;20033;-81
2022/09/13 01:18:06;;;;;;;8.98;6.20;;;;;;;16.67;100.00;101101.75;5077518;28;20097;-82
2022/09/13 01:20:43;;;;;;;6.63;5.40;;;;;;;16.66;100.00;101100.91;5076605;28;20032;-83
2022/09/13 01:23:32;;;;;;;8.13;5.72;;;;;;;16.65;100.00;101106.47;5077096;28;20078;-80
2022/09/13 01:26:03;;;;;;;7.90;5.82;;;;;;;16.66;100.00;101100.06;5076397;28;20116;-81
2022/09/13 01:28:46;;;;;;;9.07;5.28;;;;;;;16.65;100.00;101096.53;5076539;28;20060;-82
2022/09/13 01:31:39;;;;;;;8.02;6.07;;;;;;;16.62;100.00;101096.06;5076516;28;20074;-80
2022/09/13 01:34:20;;;;;;;9.57;5.50;;;;;;;16.61;100.00;101092.50;5073989;28;20457;-82
2022/09/13 01:37:00;;;;;;;8.15;6.30;;;;;;;16.61;100.00;101097.06;5076555;28;20067;-82
2022/09/13 01:40:01;;;;;;;10.40;6.33;;;;;;;16.60;100.00;101093.53;5075922;28;20064;-80
2022/09/13 01:42:48;;;;;;;9.95;5.85;;;;;;;16.59;100.00;101085.66;5076118;28;20259;-80
2022/09/13 01:45:22;;;;;;;10.07;6.03;;;;;;;16.58;100.00;101084.81;5076047;28;20071;-79
2022/09/13 01:48:08;;;;;;;6.88;5.60;;;;;;;16.57;100.00;101081.28;5076085;28;20051;-80
2022/09/13 01:50:51;;;;;;;8.77;6.10;;;;;;;16.57;100.00;101083.16;5075750;28;20032;-81
2022/09/13 01:53:39;;;;;;;8.25;6.00;;;;;;;16.56;100.00;101079.59;5075820;28;20040;-80
2022/09/13 01:56:11;;;;;;;8.05;5.82;;;;;;;16.55;100.00;101080.59;5074757;28;20029;-80
2022/09/13 01:58:50;;;;;;;9.13;5.97;;;;;;;16.55;100.00;101082.47;5075703;28;20088;-80
2022/09/13 02:01:31;;;;;;;7.07;5.68;;;;;;;16.55;100.00;101082.47;5057960;28;20028;-80
2022/09/13 02:04:12;;;;;;;11.48;5.70;;;;;;;16.54;100.00;101081.63;5075923;28;20072;-80
2022/09/13 02:07:13;;;;;;;9.45;5.53;;;;;;;16.51;100.00;101075.75;5075604;28;20036;-79
2022/09/13 02:09:46;;;;;;;11.77;5.75;;;;;;;16.47;100.00;101074.44;5044860;28;20037;-80
2022/09/13 02:12:20;;;;;;;9.32;6.05;;;;;;;16.45;100.00;101069.25;5076125;28;20028;-81
2022/09/13 02:14:53;;;;;;;7.22;5.70;;;;;;;16.40;100.00;101075.09;5075449;28;20414;-80
2022/09/13 02:17:26;;;;;;;10.13;6.18;;;;;;;16.35;100.00;101076.66;5075226;28;20020;-80
2022/09/13 02:20:00;;;;;;;9.45;6.10;;;;;;;16.32;100.00;101080.50;5075026;28;20035;-79
2022/09/13 02:22:37;;;;;;;9.57;6.15;;;;;;;16.33;100.00;101074.13;5057650;28;20369;-80
2022/09/13 02:25:11;;;;;;;8.13;6.00;;;;;;;16.33;100.00;101076.81;5075311;28;20028;-79
2022/09/13 02:27:40;;;;;;;8.73;5.88;;;;;;;16.29;100.00;101072.81;5075767;28;20029;-80
2022/09/13 02:30:09;;;;;;;9.90;6.28;;;;;;;16.29;100.00;101080.03;5057765;28;20036;-80
2022/09/13 02:32:51;;;;;;;8.52;6.05;;;;;;;16.28;100.00;101076.47;5075665;28;20040;-79
2022/09/13 02:35:35;;;;;;;9.52;5.95;;;;;;;16.31;100.00;101075.31;5075337;28;20037;-80
2022/09/13 02:38:11;;;;;;;10.23;5.63;;;;;;;16.29;100.00;101072.81;5075235;28;20035;-79
2022/09/13 02:40:48;;;;;;;9.43;6.00;;;;;;;16.27;100.00;101074.84;5074711;28;20028;-80
2022/09/13 02:43:30;;;;;;;7.50;5.93;;;;;;;16.28;100.00;101078.34;5075214;28;20385;-79
2022/09/13 02:46:06;;;;;;;8.65;6.53;;;;;;;16.30;100.00;101076.31;5075610;28;20039;-79
2022/09/13 02:48:58;;;;;;;8.43;6.07;;;;;;;16.33;100.00;101086.72;5074540;28;20484;-80
2022/09/13 02:51:29;;;;;;;;;;;;;;;16.32;100.00;101077.81;5064104;28;20045;-79
2022/09/13 02:54:08;;;;;;;9.02;5.70;;;;;;;16.33;100.00;101087.56;5074137;28;19951;-79
2022/09/13 02:56:44;;;;;;;9.75;6.03;;;;;;;16.31;100.00;101083.38;5074549;28;20020;-79
2022/09/13 02:59:21;;;;;;;8.63;6.43;;;;;;;16.31;100.00;101084.19;5074350;28;20029;-79
2022/09/13 03:01:55;;;;;;;9.60;6.60;;;;;;;16.31;100.00;101086.06;5056556;28;20025;-79
2022/09/13 03:04:21;;;;;;;11.07;6.68;;;;;;;16.32;100.00;101087.75;5075092;28;20028;-80
2022/09/13 03:06:48;;;;;;;10.32;6.72;;;;;;;16.31;100.00;101086.88;5074523;28;20554;-80
2022/09/13 03:09:14;;;;;;;10.65;6.70;;;;;;;16.29;100.00;101088.91;5056430;28;20119;-79
2022/09/13 03:12:07;;;;;;;7.95;5.97;;;;;;;16.29;100.00;101082.72;5074264;28;20032;-80
2022/09/13 03:14:53;;;;;;;11.15;6.85;;;;;;;16.28;100.00;101083.72;5074249;28;20110;-79
2022/09/13 03:17:47;;;;;;;10.38;5.97;;;;;;;16.25;100.00;101087.56;5056776;28;20051;-79
2022/09/13 03:20:54;;;;;;;11.05;6.30;;;;;;;16.23;100.00;101078.84;5074335;28;20081;-80
2022/09/13 03:23:32;;;;;;;10.73;5.90;;;;;;;16.22;100.00;101075.31;5073395;28;20075;-80
2022/09/13 03:25:57;;;;;;;8.13;6.30;;;;;;;16.20;100.00;101081.88;5055991;28;20484;-80
2022/09/13 03:28:50;;;;;;;8.05;6.20;;;;;;;16.18;100.00;101091.94;5074224;28;20075;-80
2022/09/13 03:31:26;;;;;;;7.57;5.82;;;;;;;16.16;100.00;101088.59;5074537;28;20041;-79
2022/09/13 03:33:57;;;;;;;9.45;6.57;;;;;;;16.17;100.00;101092.97;5074075;28;20463;-80
2022/09/13 03:36:43;;;;;;;9.68;6.63;;;;;;;16.14;100.00;101088.75;5073640;28;20535;-80
2022/09/13 03:39:19;;;;;;;8.40;6.93;;;;;;;16.14;100.00;101093.31;5073990;28;20119;-79
2022/09/13 03:41:53;;;;;;;9.48;6.63;;;;;;;16.13;100.00;101097.00;5074079;28;20461;-79
2022/09/13 03:44:21;;;;;;;10.43;7.25;;;;;;;16.11;100.00;101091.78;5073279;28;20044;-80
2022/09/13 03:46:51;;;;;;;12.15;7.70;;;;;;;16.12;100.00;101095.31;5074069;28;20032;-81
2022/09/13 03:49:19;;;;;;;9.73;7.30;;;;;;;16.10;100.00;101091.97;5073347;28;20021;-79
2022/09/13 03:51:47;;;;;;;9.30;7.07;;;;;;;16.05;100.00;101087.09;5055831;28;20029;-80
2022/09/13 03:54:22;;;;;;;10.13;7.53;;;;;;;16.03;100.00;101089.97;5073098;28;20020;-79
2022/09/13 03:57:12;;;;;;;9.27;7.18;;;;;;;16.00;100.00;101084.06;5073648;28;20036;-81
2022/09/13 03:59:45;;;;;;;8.45;7.05;;;;;;;15.96;100.00;101090.78;5073229;28;20032;-79
2022/09/13 04:02:10;;;;;;;9.20;7.13;;;;;;;15.91;100.00;101093.97;5039584;28;20032;-79
2022/09/13 04:04:41;;;;;;;13.40;8.38;;;;;;;15.87;100.00;101089.97;5056110;28;20040;-79
2022/09/13 04:07:08;;;;;;;11.80;8.48;;;;;;;15.85;100.00;101094.63;5056137;28;20042;-79
2022/09/13 04:09:33;;;;;;;14.63;9.23;;;;;;;15.81;100.00;101090.63;5073353;28;20032;-79
2022/09/13 04:11:58;;;;;;;15.13;9.10;;;;;;;15.74;100.00;101090.41;5073062;28;20051;-79
2022/09/13 04:14:25;;;;;;;13.90;9.15;;;;;;;15.68;100.00;101091.91;5073438;28;20039;-79
2022/09/13 04:16:55;;;;;;;12.10;8.98;;;;;;;15.63;100.00;101090.72;5073201;28;20056;-80
2022/09/13 04:19:23;;;;;;;12.07;8.90;;;;;;;15.57;100.00;101092.25;5072472;28;20066;-79
2022/09/13 04:21:49;;;;;;;16.77;10.90;;;;;;;15.51;100.00;101093.75;5073736;28;20082;-79
2022/09/13 04:24:17;;;;;;;15.75;11.20;;;;;;;15.48;100.00;101102.13;5072915;28;20553;-79
2022/09/13 04:26:43;;;;;;;16.40;11.07;;;;;;;15.46;100.00;101097.94;5073313;28;20052;-79
2022/09/13 04:29:08;;;;;;;19.88;11.32;;;;;;;15.44;100.00;101103.44;5073271;28;20486;-81
2022/09/13 04:31:33;;;;;;;18.20;11.85;;;;;;;15.42;100.00;101110.84;5055521;28;20025;-79
2022/09/13 04:33:59;;;;;;;16.83;10.70;;;;;;;15.45;100.00;101112.31;5072751;28;20532;-80
2022/09/13 04:36:25;;;;;;;17.73;11.38;;;;;;;15.48;100.00;101114.69;5073081;28;20431;-79
2022/09/13 04:38:50;;;;;;;19.30;11.82;;;;;;;15.49;100.00;101117.19;5073386;28;20075;-79
2022/09/13 04:41:16;;;;;;;19.52;12.68;;;;;;;15.55;100.00;101115.69;5055787;28;20068;-79
2022/09/13 04:43:42;;;;;;;26.48;15.32;;;;;;;15.59;100.00;101122.41;5072904;28;20404;-79
2022/09/13 04:46:07;;;;;;;24.00;14.32;;;;;;;15.64;100.00;101114.69;5073146;28;20041;-79
2022/09/13 04:48:33;;;;;;;25.38;14.52;;;;;;;15.71;100.00;101117.56;5073068;28;20106;-79
2022/09/13 04:51:03;;;;;;;22.13;14.25;;;;;;;15.77;100.00;101113.41;5054992;28;20033;-79
2022/09/13 04:53:29;;;;;;;24.75;14.57;;;;;;;15.82;100.00;101113.75;5072840;28;20457;-79
2022/09/13 04:56:00;;;;;;;23.63;14.98;;;;;;;15.83;100.00;101110.06;5073099;28;20033;-82
2022/09/13 04:58:26;;;;;;;25.48;13.73;;;;;;;15.83;100.00;101116.28;5073004;28;20033;-79
2022/09/13 05:00:55;;;;;;;24.65;13.90;;;;;;;15.84;100.00;101117.97;5073019;28;20111;-79
2022/09/13 05:03:21;;;;;;;22.30;13.82;;;;;;;15.87;100.00;101124.84;5072437;28;20029;-79
2022/09/13 05:05:46;;;;;;;22.58;13.27;;;;;;;15.89;100.00;101114.78;5055671;28;20043;-79
2022/09/13 05:08:11;;;;;;;22.30;13.10;;;;;;;15.93;100.00;101121.50;5072517;28;20028;-79
2022/09/13 05:10:37;;;;;;;27.30;14.15;;;;;;;15.95;100.00;101114.09;5054914;28;20115;-80
2022/09/13 05:13:02;;;;;;;24.33;13.63;;;;;;;15.97;100.00;101116.59;5072473;28;20024;-79
2022/09/13 05:15:28;;;;;;;24.05;13.18;;;;;;;15.97;100.00;101122.84;5072678;28;20056;-80
2022/09/13 05:17:53;;;;;;;22.35;12.73;;;;;;;15.98;100.00;101121.81;5072692;28;20054;-79
2022/09/13 05:20:18;;;;;;;20.73;12.77;;;;;;;15.99;100.00;101128.88;5072652;28;20036;-81
2022/09/13 05:22:44;;;;;;;21.15;12.68;;;;;;;16.02;100.00;101138.44;5072665;28;20070;-79
2022/09/13 05:25:09;;;;;;;20.15;12.60;;;;;;;16.05;100.00;101135.41;5072909;28;20071;-80
2022/09/13 05:27:35;;;;;;;18.35;11.80;;;;;;;16.08;100.00;101129.69;5072666;28;20040;-81
2022/09/13 05:30:00;;;;;;;19.55;12.02;;;;;;;16.10;100.00;101135.72;5054832;28;20036;-81
2022/09/13 05:32:26;;;;;;;21.48;12.50;;;;;;;16.13;100.00;101142.63;5076868;28;20044;-81
2022/09/13 05:34:52;;;;;;;18.80;11.45;;;;;;;16.17;100.00;101141.28;5076026;28;20044;-80
2022/09/13 05:37:17;;;;;;;18.45;11.02;;;;;;;16.20;100.00;101140.94;5058340;28;20035;-80
2022/09/13 05:39:43;;;;;;;19.45;9.95;;;;;;;16.27;100.00;101147.31;5058919;28;20046;-80
2022/09/13 05:42:08;;;;;;;17.80;9.32;;;;;;;16.30;100.00;101149.66;5058245;28;20399;-80
2022/09/13 05:44:34;;;;;;;13.07;8.23;;;;;;;16.35;100.00;101152.66;5075976;28;20453;-80
2022/09/13 05:46:59;;;;;;;17.23;9.35;;;;;;;16.39;100.00;101151.31;5076032;28;20060;-81
2022/09/13 05:49:24;;;;;;;14.43;9.00;;;;;;;16.45;100.00;101148.94;5076086;28;20556;-80
2022/09/13 05:51:50;;;;;;;13.30;8.07;;;;;;;16.49;100.00;101139.56;5058000;28;20115;-80
2022/09/13 05:54:15;;;;;;;11.82;7.88;;;;;;;16.57;100.00;101142.25;5075405;28;20365;-80
2022/09/13 05:56:40;;;;;;;11.27;7.00;;;;;;;16.61;100.00;101135.50;5058129;28;20477;-80
2022/09/13 05:59:07;;;;;;;10.25;5.97;;;;;;;16.65;100.00;101141.38;5075096;28;20029;-80
2022/09/13 06:01:33;;;;;;;8.32;5.25;;;;;;;16.68;100.00;101146.41;5075288;28;20459;-80
2022/09/13 06:03:58;;;;;;;11.82;4.10;;;;;;;16.72;100.00;101151.25;5075716;28;20028;-80
2022/09/13 06:06:24;;;;;;;7.63;4.30;;;;;;;16.78;100.00;101152.44;5075523;28;20028;-80
2022/09/13 06:08:54;;;;;;;6.05;4.00;;;;;;;16.85;100.00;101164.13;5075634;28;20032;-80
2022/09/13 06:11:20;;;;;;;7.25;3.50;;;;;;;16.91;100.00;101155.44;5075730;28;20052;-80
2022/09/13 06:13:45;;;;;;;6.82;4.10;;;;;;;17.00;100.00;101161.59;5075663;28;20060;-80
2022/09/13 06:16:12;;;;;;;5.55;3.50;;;;;;;17.06;100.00;101160.06;5075589;28;20079;-79
2022/09/13 06:18:38;;;;;;;7.38;3.42;;;;;;;17.12;100.00;101169.31;5075452;28;20032;-80
2022/09/13 06:21:10;;;;;;;6.13;3.33;;;;;;;17.17;100.00;101162.41;5075039;28;20032;-80
2022/09/13 06:23:35;;;;;;;;;;;;;;;17.27;100.00;101178.31;5075842;28;20035;-80
2022/09/13 06:26:09;;;;;;;5.78;3.08;;;;;;;17.35;100.00;101166.69;5075401;28;19908;-80
2022/09/13 06:28:35;;;;;;;4.30;2.83;;;;;;;17.42;100.00;101167.63;5075213;28;20109;-80
2022/09/13 06:31:21;;;;;;;7.80;2.80;;;;;;;17.47;100.00;101165.28;5074485;28;20318;-80
2022/09/13 06:33:47;;;;;;;6.78;2.33;;;;;;;17.54;100.00;101168.94;5074703;28;20029;-80
2022/09/13 06:36:19;;;;;;;4.75;2.55;;;;;;;17.62;100.00;101168.88;5075619;28;20029;-80
2022/09/13 06:38:48;;;;;;;3.97;2.50;;;;;;;17.71;100.00;101163.47;5074583;28;20373;-80
2022/09/13 06:41:23;;;;;;;6.43;2.30;;;;;;;17.83;100.00;101159.31;5074416;28;20025;-81
2022/09/13 06:44:01;;;;;;;5.45;2.33;;;;;;;17.98;100.00;101162.09;5082880;28;20051;-80
2022/09/13 06:46:29;;;;;;;2.83;1.63;;;;;;;18.14;100.00;101161.16;5095148;28;20058;-80
2022/09/13 06:48:57;;;;;;;3.20;1.70;;;;;;;18.30;100.00;101166.41;5095530;28;20058;-80
2022/09/13 06:51:24;;;;;;;4.35;1.85;;;;;;;18.40;100.00;101165.28;5076905;28;20024;-83
2022/09/13 06:53:55;;;;;;;4.57;1.90;;;;;;;18.46;100.00;101161.88;5076904;28;20047;-80
2022/09/13 06:56:29;;;;;;;4.70;1.80;;;;;;;18.50;100.00;101161.31;5095083;28;20081;-80
2022/09/13 06:59:01;;;;;;;3.60;1.58;;;;;;;18.52;100.00;101163.81;5094611;28;20028;-81
2022/09/13 07:01:30;;;;;;;7.88;1.45;;;;;;;18.56;100.00;101158.91;5094918;28;20028;-81
2022/09/13 07:04:07;;;;;;;3.92;1.85;;;;;;;18.63;100.00;101162.53;5094808;28;20032;-80
2022/09/13 07:06:35;;;;;;;3.65;1.40;;;;;;;18.77;100.00;101156.31;5095187;28;20028;-81
2022/09/13 07:09:03;;;;;;;3.70;1.73;;;;;;;18.92;100.00;101152.81;5094494;28;20047;-80
2022/09/13 07:11:33;;;;;;;3.30;1.42;;;;;;;19.02;100.00;101156.91;5094369;28;20063;-80
2022/09/13 07:14:00;;;;;;;6.63;1.60;;;;;;;19.13;100.00;101157.47;5077069;28;20028;-80
2022/09/13 07:16:40;;;;;;;3.33;1.38;;;;;;;19.17;100.00;101156.06;5094153;28;20024;-80
2022/09/13 07:19:11;;;;;;;4.03;1.70;;;;;;;19.22;100.00;101155.50;5094897;28;20079;-81
2022/09/13 07:21:36;;;;;;;1.58;1.23;;;;;;;19.22;100.00;101159.03;5094966;28;20032;-81
2022/09/13 07:24:03;;;;;;;4.90;1.48;;;;;;;19.14;100.00;101156.44;5076248;28;20039;-80
2022/09/13 07:26:30;;;;;;;6.65;1.30;;;;;;;19.10;100.00;101161.34;5094139;28;20032;-80
2022/09/13 07:28:58;;;;;;;4.15;1.50;;;;;;;19.09;100.00;101161.53;5093939;28;20036;-80
2022/09/13 07:31:29;;;;;;;3.80;1.35;;;;;;;19.09;100.00;101169.63;5094476;28;20461;-80
2022/09/13 07:34:03;;;;;;;4.93;1.40;;;;;;;19.12;100.00;101164.72;5076768;28;20032;-82
2022/09/13 07:36:32;;;;;;;2.65;1.50;;;;;;;19.20;100.00;101167.31;5094221;28;20028;-81
2022/09/13 07:38:58;;;;;;;1.40;1.30;;;;;;;19.33;100.00;101171.19;5075937;28;20028;-82
2022/09/13 07:41:25;;;;;;;2.97;1.27;;;;;;;19.47;100.00;101167.63;5094026;28;20028;-82
2022/09/13 07:43:51;;;;;;;3.20;1.48;;;;;;;19.65;100.00;101169.06;5072335;28;20151;-82
2022/09/13 07:46:20;;;;;;;4.80;1.48;;;;;;;19.78;100.00;101166.53;5073803;28;20032;-81
2022/09/13 07:48:46;;;;;;;5.63;1.50;;;;;;;19.81;100.00;101168.84;5073891;28;20093;-82
2022/09/13 07:51:17;;;;;;;3.40;1.10;;;;;;;19.84;100.00;101165.78;5073934;28;20032;-81
2022/09/13 07:53:43;;;;;;;2.33;1.10;;;;;;;19.86;100.00;101176.38;5073014;28;20025;-82
2022/09/13 07:56:20;;;;;;;7.93;1.60;;;;;;;19.80;100.00;101174.44;5072265;28;20749;-82
2022/09/13 07:58:48;;;;;;;1.75;1.13;;;;;;;19.82;100.00;101183.19;5073900;28;20060;-82
2022/09/13 08:01:17;;;;;;;4.68;1.30;;;;;;;19.91;100.00;101179.31;5073246;28;20029;-82
2022/09/13 08:03:49;;;;;;;3.72;1.40;;;;;;;20.00;100.00;101174.63;5073784;28;20028;-80
2022/09/13 08:06:15;;;;;;;2.33;1.23;;;;;;;20.05;100.00;101181.13;5073824;28;20461;-80
2022/09/13 08:08:40;;;;;;;5.00;1.23;;;;;;;20.17;100.00;101173.34;5055573;28;20039;-81
2022/09/13 08:11:06;;;;;;;2.95;1.20;;;;;;;20.51;100.00;101177.16;5056495;28;20033;-81
2022/09/13 08:13:32;;;;;;;4.47;1.00;;;;;;;20.85;100.00;101174.69;5055797;28;20457;-82
2022/09/13 08:16:05;;;;;;;9.75;1.38;;;;;;;21.14;100.00;101179.84;5073828;28;20043;-83
2022/09/13 08:18:30;;;;;;;5.45;1.27;;;;;;;21.28;100.00;101183.44;5056447;28;20491;-82
2022/09/13 08:20:59;;;;;;;3.50;1.30;;;;;;;21.22;100.00;101184.25;5055874;28;20032;-81
2022/09/13 08:23:26;;;;;;;2.95;1.10;;;;;;;21.05;100.00;101185.59;5073805;28;20024;-81
2022/09/13 08:25:52;;;;;;;3.90;0.90;;;;;;;20.93;100.00;101190.78;5055514;28;20041;-82
2022/09/13 08:28:20;;;;;;;1.55;0.90;;;;;;;20.80;100.00;101196.94;5073133;28;20041;-83
2022/09/13 08:30:46;;;;;;;5.05;1.38;;;;;;;20.66;100.00;101189.75;5054726;28;20373;-81
2022/09/13 08:33:12;;;;;;;2.10;0.98;;;;;;;20.60;100.00;101188.63;5073524;28;20036;-81
2022/09/13 08:35:38;;;;;;;4.25;0.98;;;;;;;20.67;100.00;101189.56;5073322;28;20134;-83
2022/09/13 08:38:09;;;;;;;4.13;1.02;;;;;;;20.76;100.00;101191.06;5072801;28;20059;-81
2022/09/13 08:40:39;;;;;;;;;;;;;;;20.98;100.00;101193.69;5074160;28;20040;-80
2022/09/13 08:43:17;;;;;;;2.47;0.85;;;;;;;21.34;100.00;101192.63;5073342;28;19926;-82
2022/09/13 08:45:49;;;;;;;3.47;1.02;;;;;;;21.90;96.46;101196.16;5073600;28;20106;-83
2022/09/13 08:48:21;;;;;;;4.07;1.30;;;;;;;22.41;91.99;101201.03;5072854;28;20127;-82
2022/09/13 08:50:50;;;;;;;3.15;1.20;;;;;;;22.42;88.02;101204.56;5054624;28;20047;-82
2022/09/13 08:53:26;;;;;;;4.90;1.02;;;;;;;22.05;91.33;101207.66;5072687;28;20056;-82
2022/09/13 08:56:11;;;;;;;5.47;1.95;;;;;;;21.74;95.52;101219.88;5073772;28;20035;-82
2022/09/13 08:58:58;;;;;;;4.43;1.17;;;;;;;21.54;96.85;101210.84;5072204;28;20066;-82
2022/09/13 09:01:32;;;;;;;4.90;1.10;;;;;;;21.40;96.76;101210.75;5072630;28;20464;-80
2022/09/13 09:04:05;;;;;;;2.67;1.10;;;;;;;21.46;97.17;101212.66;5072745;28;20047;-82
2022/09/13 09:06:34;;;;;;;5.32;1.08;;;;;;;21.38;94.46;101214.69;5075982;28;20075;-83
2022/09/13 09:09:20;;;;;;;3.80;1.30;;;;;;;21.16;94.69;101222.09;5076062;28;20107;-82
2022/09/13 09:11:59;;;;;;;9.32;1.50;;;;;;;20.81;94.68;101213.97;5077007;28;20029;-83
2022/09/13 09:14:49;;;;;;;3.17;1.08;;;;;;;20.81;97.95;101211.28;5076481;28;20107;-82
2022/09/13 09:17:24;;;;;;;3.40;1.10;;;;;;;20.90;96.12;101210.06;5059420;28;20037;-82
2022/09/13 09:20:00;;;;;;;3.55;1.30;;;;;;;21.10;95.83;101210.22;5059207;28;20024;-81
2022/09/13 09:22:31;;;;;;;7.53;1.10;;;;;;;21.73;91.30;101215.47;5076713;28;20025;-82
2022/09/13 09:24:57;;;;;;;7.10;1.40;;;;;;;22.32;84.31;101207.72;5058740;28;20368;-84
2022/09/13 09:27:24;;;;;;;7.60;1.10;;;;;;;23.13;83.87;101211.16;5059160;28;20040;-82
2022/09/13 09:29:52;;;;;;;9.65;1.10;;;;;;;23.37;75.79;101205.00;5076583;28;20237;-82
2022/09/13 09:32:20;;;;;;;5.78;1.60;;;;;;;23.19;76.31;101211.13;5076666;28;20118;-82
2022/09/13 09:34:46;;;;;;;6.55;1.50;;;;;;;22.58;78.95;101206.03;5076184;28;20039;-82
2022/09/13 09:37:18;;;;;;;3.30;1.10;;;;;;;22.11;82.08;101211.38;5058695;28;20024;-81
2022/09/13 09:39:44;;;;;;;4.70;1.20;;;;;;;21.76;85.56;101212.38;5076164;28;20029;-83
2022/09/13 09:42:14;;;;;;;5.85;1.30;;;;;;;21.54;85.80;101208.13;5058381;28;20029;-84
2022/09/13 09:44:40;;;;;;;3.95;1.48;;;;;;;21.47;86.18;101214.34;5076248;28;20052;-83
2022/09/13 09:47:27;;;;;;;3.80;1.10;;;;;;;21.80;84.42;101220.94;5076254;28;20071;-81
2022/09/13 09:50:37;;;;;;;3.97;1.30;;;;;;;22.38;78.70;101214.16;5076797;28;20033;-82
2022/09/13 09:53:13;;;;;;;3.38;1.33;;;;;;;22.99;81.11;101202.19;5075049;28;20115;-81
2022/09/13 09:55:45;;;;;;;3.70;1.25;;;;;;;24.54;73.86;101205.75;5076444;28;20028;-82
2022/09/13 09:58:15;;;;;;;4.32;1.20;;;;;;;25.62;63.15;101204.38;5075977;28;20024;-82
2022/09/13 10:00:52;;;;;;;6.40;1.48;;;;;;;25.56;59.45;101209.88;5059109;28;20413;-82
2022/09/13 10:03:20;;;;;;;6.65;1.70;;;;;;;25.69;59.56;101207.84;5075696;28;20078;-84
2022/09/13 10:05:46;;;;;;;8.55;1.70;;;;;;;26.40;60.90;101202.56;5057668;28;20119;-84
2022/09/13 10:08:42;;;;;;;6.35;1.15;;;;;;;27.58;53.99;101203.50;5075735;28;20075;-80
2022/09/13 10:11:09;;;;;;;2.40;1.20;;;;;;;27.77;52.89;101190.47;5055737;28;20040;-83
2022/09/13 10:13:37;;;;;;;4.97;1.13;;;;;;;28.26;49.63;101182.56;5075450;28;20102;-87
2022/09/13 10:16:06;;;;;;;5.68;1.23;;;;;;;27.71;54.75;101191.44;5075310;28;20372;-84
2022/09/13 10:18:36;;;;;;;3.42;1.30;;;;;;;27.14;54.58;101184.88;5057593;28;20028;-82
2022/09/13 10:21:18;;;;;;;2.78;1.30;;;;;;;27.06;52.53;101182.50;5075123;28;20021;-82
2022/09/13 10:23:46;;;;;;;3.22;1.05;;;;;;;26.25;53.36;101185.84;5075669;28;20067;-82
2022/09/13 10:26:21;;;;;;;5.75;1.45;;;;;;;25.88;54.68;101184.06;5075304;28;20031;-84
2022/09/13 10:29:07;;;;;;;4.72;1.13;;;;;;;26.20;54.82;101183.00;5075724;28;20091;-81
2022/09/13 10:31:48;;;;;;;2.30;1.00;;;;;;;26.02;55.95;101195.63;5058091;28;20032;-83
2022/09/13 10:34:27;;;;;;;7.85;1.40;;;;;;;25.36;59.32;101182.94;5075344;28;20020;-83
2022/09/13 10:37:03;;;;;;;4.22;1.00;;;;;;;24.54;62.55;101173.09;5074685;28;20032;-85
2022/09/13 10:39:32;;;;;;;4.47;1.02;;;;;;;24.15;64.00;101172.41;5075631;28;20329;-83
2022/09/13 10:42:04;;;;;;;7.53;1.33;;;;;;;25.10;61.98;101168.56;5074989;28;20024;-83
2022/09/13 10:44:44;;;;;;;4.82;1.10;;;;;;;26.04;56.16;101174.41;5073521;28;20036;-82
2022/09/13 10:47:20;;;;;;;4.25;1.25;;;;;;;27.18;51.70;101172.34;5074207;28;20033;-82
2022/09/13 10:49:54;;;;;;;4.43;1.17;;;;;;;27.13;51.88;101168.72;5075263;28;20456;-83
2022/09/13 10:52:27;;;;;;;7.38;1.60;;;;;;;26.43;54.78;101175.91;5075433;28;20035;-83
2022/09/13 10:54:53;;;;;;;4.68;1.17;;;;;;;25.76;55.68;101185.09;5074322;28;20464;-83
2022/09/13 10:57:35;;;;;;;3.83;1.10;;;;;;;24.81;58.63;101176.41;5074780;28;20119;-83
2022/09/13 11:00:09;;;;;;;2.65;0.90;;;;;;;24.82;60.32;101176.19;5075149;28;20060;-83
2022/09/13 11:02:55;;;;;;;2.28;0.90;;;;;;;25.20;59.37;101181.63;5074966;28;20346;-82
2022/09/13 11:05:29;;;;;;;4.22;1.13;;;;;;;25.44;58.48;101174.44;5074734;28;20451;-83
2022/09/13 11:08:48;;;;;;;5.55;1.15;;;;;;;25.93;57.06;101188.00;5074874;28;20040;-83
2022/09/13 11:11:32;;;;;;;5.50;1.17;;;;;;;26.60;53.51;101185.00;5074149;28;20024;-82
2022/09/13 11:14:09;;;;;;;3.33;1.13;;;;;;;25.99;53.02;101177.03;5073184;28;20059;-84
2022/09/13 11:17:02;;;;;;;3.42;1.20;;;;;;;25.41;54.67;101180.34;5074051;28;20536;-83
2022/09/13 11:20:03;;;;;;;6.25;1.10;;;;;;;24.78;55.90;101175.00;5074280;28;20064;-83
2022/09/13 11:22:31;;;;;;;6.40;1.40;;;;;;;24.79;57.94;101162.22;5073995;28;20053;-83
2022/09/13 11:25:19;;;;;;;5.80;1.50;;;;;;;25.03;58.13;101162.38;5072719;28;20086;-83
2022/09/13 11:28:21;;;;;;;1.33;0.90;;;;;;;24.68;57.58;101158.34;5072511;28;20040;-85
2022/09/13 11:31:27;;;;;;;5.75;1.30;;;;;;;24.57;58.58;101159.91;5074138;28;20039;-83
2022/09/13 11:34:02;;;;;;;4.90;1.25;;;;;;;24.97;55.27;101172.25;5008914;28;20037;-84
2022/09/13 11:36:36;;;;;;;5.10;1.00;;;;;;;25.66;54.70;101175.59;5073866;28;20025;-83
2022/09/13 11:39:16;;;;;;;2.78;1.10;;;;;;;26.07;50.87;101186.75;5073064;28;20035;-84
2022/09/13 11:41:46;;;;;;;3.58;1.10;;;;;;;26.12;51.41;101186.06;5073889;28;20032;-82